sensor_id;sensor_type;location;lat;lon;timestamp;temperature;humidity
34766;DHT22;20984;43.508;1.504;2022-08-20T00:00:12;19.10;99.90
34766;DHT22;20984;43.508;1.504;2022-08-20T00:02:51;19.00;99.90
34766;DHT22;20984;43.508;1.504;2022-08-20T00:05:30;19.00;99.90
34766;DHT22;20984;43.508;1.504;2022-08-20T00:07:56;19.00;99.90
34766;DHT22;20984;43.508;1.504;2022-08-20T00:10:24;19.10;99.90
34766;DHT22;20984;43.508;1.504;2022-08-20T00:12:50;19.10;99.90
34766;DHT22;20984;43.508;1.504;2022-08-20T00:15:19;19.10;99.90
34766;DHT22;20984;43.508;1.504;2022-08-20T00:17:50;19.00;99.90
34766;DHT22;20984;43.508;1.504;2022-08-20T00:20:18;19.00;99.90
34766;DHT22;20984;43.508;1.504;2022-08-20T00:22:45;19.00;99.90
34766;DHT22;20984;43.508;1.504;2022-08-20T00:25:12;19.00;99.90
34766;DHT22;20984;43.508;1.504;2022-08-20T00:27:39;18.90;99.90
34766;DHT22;20984;43.508;1.504;2022-08-20T00:30:07;19.00;99.90
34766;DHT22;20984;43.508;1.504;2022-08-20T00:32:44;19.00;99.90
34766;DHT22;20984;43.508;1.504;2022-08-20T00:35:11;19.00;99.90
34766;DHT22;20984;43.508;1.504;2022-08-20T00:37:37;19.00;99.90
34766;DHT22;20984;43.508;1.504;2022-08-20T00:40:05;19.00;99.90
34766;DHT22;20984;43.508;1.504;2022-08-20T00:42:40;19.00;99.90
34766;DHT22;20984;43.508;1.504;2022-08-20T00:45:06;19.00;99.90
34766;DHT22;20984;43.508;1.504;2022-08-20T00:47:33;19.00;99.90
34766;DHT22;20984;43.508;1.504;2022-08-20T00:49:59;18.90;99.90
34766;DHT22;20984;43.508;1.504;2022-08-20T00:52:25;18.90;99.90
34766;DHT22;20984;43.508;1.504;2022-08-20T00:54:57;18.90;99.90
34766;DHT22;20984;43.508;1.504;2022-08-20T00:57:34;18.80;99.90
34766;DHT22;20984;43.508;1.504;2022-08-20T01:00:07;18.80;99.90
34766;DHT22;20984;43.508;1.504;2022-08-20T01:02:34;18.80;99.90
34766;DHT22;20984;43.508;1.504;2022-08-20T01:05:00;18.80;99.90
34766;DHT22;20984;43.508;1.504;2022-08-20T01:07:30;18.80;99.90
34766;DHT22;20984;43.508;1.504;2022-08-20T01:10:16;18.80;99.90
34766;DHT22;20984;43.508;1.504;2022-08-20T01:12:44;18.70;99.90
34766;DHT22;20984;43.508;1.504;2022-08-20T01:15:14;18.70;99.90
34766;DHT22;20984;43.508;1.504;2022-08-20T01:17:47;18.70;99.90
34766;DHT22;20984;43.508;1.504;2022-08-20T01:20:30;18.70;99.90
34766;DHT22;20984;43.508;1.504;2022-08-20T01:23:20;18.70;99.90
34766;DHT22;20984;43.508;1.504;2022-08-20T01:25:53;18.60;99.90
34766;DHT22;20984;43.508;1.504;2022-08-20T01:28:27;18.50;99.90
34766;DHT22;20984;43.508;1.504;2022-08-20T01:30:54;18.50;99.90
34766;DHT22;20984;43.508;1.504;2022-08-20T01:33:22;18.40;99.90
34766;DHT22;20984;43.508;1.504;2022-08-20T01:35:48;18.40;99.90
34766;DHT22;20984;43.508;1.504;2022-08-20T01:38:15;18.40;99.90
34766;DHT22;20984;43.508;1.504;2022-08-20T01:41:12;18.30;99.90
34766;DHT22;20984;43.508;1.504;2022-08-20T01:43:41;18.20;99.90
34766;DHT22;20984;43.508;1.504;2022-08-20T01:46:09;18.20;99.90
34766;DHT22;20984;43.508;1.504;2022-08-20T01:48:38;18.10;99.90
34766;DHT22;20984;43.508;1.504;2022-08-20T01:51:19;18.10;99.90
34766;DHT22;20984;43.508;1.504;2022-08-20T01:53:52;18.00;99.90
34766;DHT22;20984;43.508;1.504;2022-08-20T01:56:24;18.00;99.90
34766;DHT22;20984;43.508;1.504;2022-08-20T01:58:52;18.00;99.90
34766;DHT22;20984;43.508;1.504;2022-08-20T02:01:23;17.90;99.90
34766;DHT22;20984;43.508;1.504;2022-08-20T02:03:49;17.90;99.90
34766;DHT22;20984;43.508;1.504;2022-08-20T02:06:16;17.80;99.90
34766;DHT22;20984;43.508;1.504;2022-08-20T02:08:42;17.80;99.90
34766;DHT22;20984;43.508;1.504;2022-08-20T02:11:09;17.80;99.90
34766;DHT22;20984;43.508;1.504;2022-08-20T02:13:35;17.70;99.90
34766;DHT22;20984;43.508;1.504;2022-08-20T02:16:01;17.70;99.90
34766;DHT22;20984;43.508;1.504;2022-08-20T02:18:27;17.70;99.90
34766;DHT22;20984;43.508;1.504;2022-08-20T02:20:53;17.70;99.90
34766;DHT22;20984;43.508;1.504;2022-08-20T02:23:19;17.60;99.90
34766;DHT22;20984;43.508;1.504;2022-08-20T02:25:45;17.60;99.90
34766;DHT22;20984;43.508;1.504;2022-08-20T02:28:16;17.60;99.90
34766;DHT22;20984;43.508;1.504;2022-08-20T02:30:46;17.60;99.90
34766;DHT22;20984;43.508;1.504;2022-08-20T02:33:14;17.60;99.90
34766;DHT22;20984;43.508;1.504;2022-08-20T02:35:42;17.50;99.90
34766;DHT22;20984;43.508;1.504;2022-08-20T02:38:10;17.50;99.90
34766;DHT22;20984;43.508;1.504;2022-08-20T02:40:36;17.50;99.90
34766;DHT22;20984;43.508;1.504;2022-08-20T02:43:03;17.50;99.90
34766;DHT22;20984;43.508;1.504;2022-08-20T02:45:31;17.40;99.90
34766;DHT22;20984;43.508;1.504;2022-08-20T02:48:02;17.40;99.90
34766;DHT22;20984;43.508;1.504;2022-08-20T02:50:28;17.40;99.90
34766;DHT22;20984;43.508;1.504;2022-08-20T02:52:55;17.30;99.90
34766;DHT22;20984;43.508;1.504;2022-08-20T02:55:21;17.30;99.90
34766;DHT22;20984;43.508;1.504;2022-08-20T02:57:47;17.30;99.90
34766;DHT22;20984;43.508;1.504;2022-08-20T03:00:17;17.30;99.90
34766;DHT22;20984;43.508;1.504;2022-08-20T03:02:43;17.30;99.90
34766;DHT22;20984;43.508;1.504;2022-08-20T03:05:11;17.30;99.90
34766;DHT22;20984;43.508;1.504;2022-08-20T03:07:48;17.30;99.90
34766;DHT22;20984;43.508;1.504;2022-08-20T03:10:16;17.30;99.90
34766;DHT22;20984;43.508;1.504;2022-08-20T03:12:42;17.20;99.90
34766;DHT22;20984;43.508;1.504;2022-08-20T03:15:09;17.20;99.90
34766;DHT22;20984;43.508;1.504;2022-08-20T03:17:36;17.20;99.90
34766;DHT22;20984;43.508;1.504;2022-08-20T03:20:05;17.10;99.90
34766;DHT22;20984;43.508;1.504;2022-08-20T03:22:31;17.10;99.90
34766;DHT22;20984;43.508;1.504;2022-08-20T03:24:57;17.10;99.90
34766;DHT22;20984;43.508;1.504;2022-08-20T03:27:23;17.10;99.90
34766;DHT22;20984;43.508;1.504;2022-08-20T03:29:49;17.10;99.90
34766;DHT22;20984;43.508;1.504;2022-08-20T03:32:15;17.10;99.90
34766;DHT22;20984;43.508;1.504;2022-08-20T03:34:41;17.00;99.90
34766;DHT22;20984;43.508;1.504;2022-08-20T03:37:07;17.00;99.90
34766;DHT22;20984;43.508;1.504;2022-08-20T03:39:33;17.00;99.90
34766;DHT22;20984;43.508;1.504;2022-08-20T03:41:58;17.00;99.90
34766;DHT22;20984;43.508;1.504;2022-08-20T03:44:24;17.00;99.90
34766;DHT22;20984;43.508;1.504;2022-08-20T03:46:51;17.00;99.90
34766;DHT22;20984;43.508;1.504;2022-08-20T03:49:17;16.90;99.90
34766;DHT22;20984;43.508;1.504;2022-08-20T03:51:42;16.90;99.90
34766;DHT22;20984;43.508;1.504;2022-08-20T03:54:08;16.90;99.90
34766;DHT22;20984;43.508;1.504;2022-08-20T03:56:34;16.90;99.90
34766;DHT22;20984;43.508;1.504;2022-08-20T03:59:00;16.90;99.90
34766;DHT22;20984;43.508;1.504;2022-08-20T04:01:26;16.80;99.90
34766;DHT22;20984;43.508;1.504;2022-08-20T04:03:52;16.80;99.90
34766;DHT22;20984;43.508;1.504;2022-08-20T04:06:18;16.80;99.90
34766;DHT22;20984;43.508;1.504;2022-08-20T04:08:44;16.70;99.90
34766;DHT22;20984;43.508;1.504;2022-08-20T04:11:10;16.70;99.90
34766;DHT22;20984;43.508;1.504;2022-08-20T04:13:36;16.70;99.90
34766;DHT22;20984;43.508;1.504;2022-08-20T04:16:03;16.70;99.90
34766;DHT22;20984;43.508;1.504;2022-08-20T04:18:34;16.70;99.90
34766;DHT22;20984;43.508;1.504;2022-08-20T04:21:02;16.70;99.90
34766;DHT22;20984;43.508;1.504;2022-08-20T04:23:29;16.70;99.90
34766;DHT22;20984;43.508;1.504;2022-08-20T04:25:56;16.60;99.90
34766;DHT22;20984;43.508;1.504;2022-08-20T04:28:24;16.60;99.90
34766;DHT22;20984;43.508;1.504;2022-08-20T04:30:52;16.60;99.90
34766;DHT22;20984;43.508;1.504;2022-08-20T04:33:21;16.60;99.90
34766;DHT22;20984;43.508;1.504;2022-08-20T04:35:49;16.60;99.90
34766;DHT22;20984;43.508;1.504;2022-08-20T04:38:17;16.60;99.90
34766;DHT22;20984;43.508;1.504;2022-08-20T04:40:43;16.50;99.90
34766;DHT22;20984;43.508;1.504;2022-08-20T04:43:21;16.50;99.90
34766;DHT22;20984;43.508;1.504;2022-08-20T04:45:48;16.50;99.90
34766;DHT22;20984;43.508;1.504;2022-08-20T04:48:14;16.40;99.90
34766;DHT22;20984;43.508;1.504;2022-08-20T04:50:43;16.40;99.90
34766;DHT22;20984;43.508;1.504;2022-08-20T04:53:10;16.40;99.90
34766;DHT22;20984;43.508;1.504;2022-08-20T04:55:38;16.40;99.90
34766;DHT22;20984;43.508;1.504;2022-08-20T04:58:19;16.40;99.90
34766;DHT22;20984;43.508;1.504;2022-08-20T05:00:47;16.40;99.90
34766;DHT22;20984;43.508;1.504;2022-08-20T05:03:14;16.40;99.90
34766;DHT22;20984;43.508;1.504;2022-08-20T05:05:40;16.40;99.90
34766;DHT22;20984;43.508;1.504;2022-08-20T05:08:06;16.40;99.90
34766;DHT22;20984;43.508;1.504;2022-08-20T05:10:32;16.40;99.90
34766;DHT22;20984;43.508;1.504;2022-08-20T05:12:59;16.40;99.90
34766;DHT22;20984;43.508;1.504;2022-08-20T05:15:25;16.40;99.90
34766;DHT22;20984;43.508;1.504;2022-08-20T05:17:58;16.40;99.90
34766;DHT22;20984;43.508;1.504;2022-08-20T05:20:30;16.40;99.90
34766;DHT22;20984;43.508;1.504;2022-08-20T05:23:00;16.50;99.90
34766;DHT22;20984;43.508;1.504;2022-08-20T05:25:28;16.50;99.90
34766;DHT22;20984;43.508;1.504;2022-08-20T05:28:03;16.50;99.90
34766;DHT22;20984;43.508;1.504;2022-08-20T05:30:35;16.60;99.90
34766;DHT22;20984;43.508;1.504;2022-08-20T05:33:03;16.60;99.90
34766;DHT22;20984;43.508;1.504;2022-08-20T05:35:31;16.70;99.90
34766;DHT22;20984;43.508;1.504;2022-08-20T05:37:59;16.80;99.90
34766;DHT22;20984;43.508;1.504;2022-08-20T05:40:28;16.90;99.90
34766;DHT22;20984;43.508;1.504;2022-08-20T05:42:54;17.00;99.90
34766;DHT22;20984;43.508;1.504;2022-08-20T05:45:20;17.10;99.90
34766;DHT22;20984;43.508;1.504;2022-08-20T05:47:47;17.20;99.90
34766;DHT22;20984;43.508;1.504;2022-08-20T05:50:15;17.40;99.90
34766;DHT22;20984;43.508;1.504;2022-08-20T05:52:41;17.50;99.90
34766;DHT22;20984;43.508;1.504;2022-08-20T05:55:09;17.50;99.90
34766;DHT22;20984;43.508;1.504;2022-08-20T05:57:38;17.60;99.90
34766;DHT22;20984;43.508;1.504;2022-08-20T06:00:06;17.70;99.90
34766;DHT22;20984;43.508;1.504;2022-08-20T06:02:33;17.80;99.90
34766;DHT22;20984;43.508;1.504;2022-08-20T06:05:17;17.90;99.90
34766;DHT22;20984;43.508;1.504;2022-08-20T06:07:46;18.00;99.90
34766;DHT22;20984;43.508;1.504;2022-08-20T06:10:15;18.10;99.90
34766;DHT22;20984;43.508;1.504;2022-08-20T06:12:49;18.10;99.90
34766;DHT22;20984;43.508;1.504;2022-08-20T06:15:18;18.30;99.90
34766;DHT22;20984;43.508;1.504;2022-08-20T06:17:45;18.40;99.90
34766;DHT22;20984;43.508;1.504;2022-08-20T06:20:11;18.50;99.90
34766;DHT22;20984;43.508;1.504;2022-08-20T06:22:39;18.60;99.90
34766;DHT22;20984;43.508;1.504;2022-08-20T06:25:06;18.80;99.90
34766;DHT22;20984;43.508;1.504;2022-08-20T06:27:36;19.00;99.90
34766;DHT22;20984;43.508;1.504;2022-08-20T06:30:15;19.10;99.90
34766;DHT22;20984;43.508;1.504;2022-08-20T06:32:46;19.20;99.90
34766;DHT22;20984;43.508;1.504;2022-08-20T06:35:17;19.30;99.90
34766;DHT22;20984;43.508;1.504;2022-08-20T06:37:43;19.40;99.90
34766;DHT22;20984;43.508;1.504;2022-08-20T06:40:15;19.40;99.90
34766;DHT22;20984;43.508;1.504;2022-08-20T06:42:42;19.50;99.90
34766;DHT22;20984;43.508;1.504;2022-08-20T06:45:13;19.60;99.90
34766;DHT22;20984;43.508;1.504;2022-08-20T06:47:42;19.60;99.90
34766;DHT22;20984;43.508;1.504;2022-08-20T06:50:18;19.70;99.90
34766;DHT22;20984;43.508;1.504;2022-08-20T06:52:45;19.80;99.90
34766;DHT22;20984;43.508;1.504;2022-08-20T06:55:13;19.90;99.90
34766;DHT22;20984;43.508;1.504;2022-08-20T06:57:39;20.00;99.90
34766;DHT22;20984;43.508;1.504;2022-08-20T07:00:12;20.10;99.90
34766;DHT22;20984;43.508;1.504;2022-08-20T07:02:39;20.10;99.90
34766;DHT22;20984;43.508;1.504;2022-08-20T07:05:06;20.10;99.90
34766;DHT22;20984;43.508;1.504;2022-08-20T07:07:32;20.20;99.90
34766;DHT22;20984;43.508;1.504;2022-08-20T07:10:10;20.30;99.90
34766;DHT22;20984;43.508;1.504;2022-08-20T07:12:36;20.40;99.90
34766;DHT22;20984;43.508;1.504;2022-08-20T07:15:04;20.50;99.90
34766;DHT22;20984;43.508;1.504;2022-08-20T07:17:30;20.50;99.90
34766;DHT22;20984;43.508;1.504;2022-08-20T07:19:56;20.60;99.90
34766;DHT22;20984;43.508;1.504;2022-08-20T07:22:22;20.60;99.90
34766;DHT22;20984;43.508;1.504;2022-08-20T07:24:49;20.70;99.90
34766;DHT22;20984;43.508;1.504;2022-08-20T07:27:20;20.80;99.90
34766;DHT22;20984;43.508;1.504;2022-08-20T07:29:47;20.80;99.90
34766;DHT22;20984;43.508;1.504;2022-08-20T07:32:31;20.90;99.90
34766;DHT22;20984;43.508;1.504;2022-08-20T07:35:06;21.10;99.90
34766;DHT22;20984;43.508;1.504;2022-08-20T07:37:37;21.20;99.90
34766;DHT22;20984;43.508;1.504;2022-08-20T07:40:05;21.20;99.90
34766;DHT22;20984;43.508;1.504;2022-08-20T07:42:31;21.40;99.90
34766;DHT22;20984;43.508;1.504;2022-08-20T07:44:57;21.50;99.90
34766;DHT22;20984;43.508;1.504;2022-08-20T07:47:23;21.60;99.90
34766;DHT22;20984;43.508;1.504;2022-08-20T07:49:49;21.70;99.90
34766;DHT22;20984;43.508;1.504;2022-08-20T07:52:15;21.80;99.90
34766;DHT22;20984;43.508;1.504;2022-08-20T07:54:41;21.80;99.90
34766;DHT22;20984;43.508;1.504;2022-08-20T07:57:08;21.90;99.90
34766;DHT22;20984;43.508;1.504;2022-08-20T07:59:36;21.90;99.90
34766;DHT22;20984;43.508;1.504;2022-08-20T08:02:03;21.90;99.90
34766;DHT22;20984;43.508;1.504;2022-08-20T08:04:29;22.00;99.90
34766;DHT22;20984;43.508;1.504;2022-08-20T08:06:55;22.10;99.90
34766;DHT22;20984;43.508;1.504;2022-08-20T08:09:25;22.30;99.90
34766;DHT22;20984;43.508;1.504;2022-08-20T08:11:52;22.40;99.90
34766;DHT22;20984;43.508;1.504;2022-08-20T08:14:24;22.50;99.90
34766;DHT22;20984;43.508;1.504;2022-08-20T08:16:57;22.60;99.90
34766;DHT22;20984;43.508;1.504;2022-08-20T08:19:25;22.60;99.90
34766;DHT22;20984;43.508;1.504;2022-08-20T08:21:52;22.70;99.90
34766;DHT22;20984;43.508;1.504;2022-08-20T08:24:18;22.70;99.90
34766;DHT22;20984;43.508;1.504;2022-08-20T08:26:44;22.60;99.90
34766;DHT22;20984;43.508;1.504;2022-08-20T08:29:10;22.70;99.90
34766;DHT22;20984;43.508;1.504;2022-08-20T08:31:37;22.90;99.90
34766;DHT22;20984;43.508;1.504;2022-08-20T08:34:03;23.10;99.90
34766;DHT22;20984;43.508;1.504;2022-08-20T08:36:30;23.10;99.90
34766;DHT22;20984;43.508;1.504;2022-08-20T08:38:55;23.30;99.90
34766;DHT22;20984;43.508;1.504;2022-08-20T08:41:39;23.40;99.90
34766;DHT22;20984;43.508;1.504;2022-08-20T08:44:06;23.50;99.90
34766;DHT22;20984;43.508;1.504;2022-08-20T08:46:44;23.50;99.90
34766;DHT22;20984;43.508;1.504;2022-08-20T08:49:17;23.70;99.90
34766;DHT22;20984;43.508;1.504;2022-08-20T08:52:03;23.70;99.90
34766;DHT22;20984;43.508;1.504;2022-08-20T08:54:33;23.80;99.90
34766;DHT22;20984;43.508;1.504;2022-08-20T08:57:00;23.90;99.90
34766;DHT22;20984;43.508;1.504;2022-08-20T08:59:28;24.00;99.90
34766;DHT22;20984;43.508;1.504;2022-08-20T09:01:57;24.30;99.90
34766;DHT22;20984;43.508;1.504;2022-08-20T09:04:29;24.50;99.90
34766;DHT22;20984;43.508;1.504;2022-08-20T09:06:56;24.50;99.90
34766;DHT22;20984;43.508;1.504;2022-08-20T09:09:30;24.50;99.90
34766;DHT22;20984;43.508;1.504;2022-08-20T09:12:07;24.40;99.90
34766;DHT22;20984;43.508;1.504;2022-08-20T09:14:34;24.40;99.90
34766;DHT22;20984;43.508;1.504;2022-08-20T09:17:00;24.40;99.90
34766;DHT22;20984;43.508;1.504;2022-08-20T09:19:26;24.40;99.90
34766;DHT22;20984;43.508;1.504;2022-08-20T09:21:52;24.30;99.90
34766;DHT22;20984;43.508;1.504;2022-08-20T09:24:18;24.20;99.90
34766;DHT22;20984;43.508;1.504;2022-08-20T09:26:44;24.10;99.90
34766;DHT22;20984;43.508;1.504;2022-08-20T09:29:09;24.20;99.90
34766;DHT22;20984;43.508;1.504;2022-08-20T09:31:36;24.60;99.90
34766;DHT22;20984;43.508;1.504;2022-08-20T09:34:02;24.90;99.90
34766;DHT22;20984;43.508;1.504;2022-08-20T09:36:28;25.10;99.90
34766;DHT22;20984;43.508;1.504;2022-08-20T09:38:54;25.30;99.90
34766;DHT22;20984;43.508;1.504;2022-08-20T09:41:20;25.50;99.90
34766;DHT22;20984;43.508;1.504;2022-08-20T09:43:46;25.80;99.90
34766;DHT22;20984;43.508;1.504;2022-08-20T09:46:11;25.90;99.90
34766;DHT22;20984;43.508;1.504;2022-08-20T09:48:37;25.80;99.90
34766;DHT22;20984;43.508;1.504;2022-08-20T09:51:03;25.90;99.90
34766;DHT22;20984;43.508;1.504;2022-08-20T09:53:29;25.90;99.90
34766;DHT22;20984;43.508;1.504;2022-08-20T09:55:56;26.10;99.90
34766;DHT22;20984;43.508;1.504;2022-08-20T10:01:12;26.20;99.90
34766;DHT22;20984;43.508;1.504;2022-08-20T10:03:43;26.00;99.90
34766;DHT22;20984;43.508;1.504;2022-08-20T10:06:09;25.70;99.90
34766;DHT22;20984;43.508;1.504;2022-08-20T10:08:36;25.50;99.90
34766;DHT22;20984;43.508;1.504;2022-08-20T10:11:03;25.50;99.90
34766;DHT22;20984;43.508;1.504;2022-08-20T10:13:29;25.30;99.90
34766;DHT22;20984;43.508;1.504;2022-08-20T10:15:55;25.20;99.90
34766;DHT22;20984;43.508;1.504;2022-08-20T10:18:21;25.10;99.90
34766;DHT22;20984;43.508;1.504;2022-08-20T10:20:47;25.10;99.90
34766;DHT22;20984;43.508;1.504;2022-08-20T10:23:13;25.10;99.90
34766;DHT22;20984;43.508;1.504;2022-08-20T10:25:39;25.40;99.90
34766;DHT22;20984;43.508;1.504;2022-08-20T10:28:06;25.80;99.90
34766;DHT22;20984;43.508;1.504;2022-08-20T10:30:32;26.10;99.90
34766;DHT22;20984;43.508;1.504;2022-08-20T10:32:58;26.10;99.90
34766;DHT22;20984;43.508;1.504;2022-08-20T10:35:24;26.20;99.90
34766;DHT22;20984;43.508;1.504;2022-08-20T10:37:50;26.20;99.90
34766;DHT22;20984;43.508;1.504;2022-08-20T10:40:16;26.10;99.90
34766;DHT22;20984;43.508;1.504;2022-08-20T10:42:42;26.20;99.90
34766;DHT22;20984;43.508;1.504;2022-08-20T10:45:10;26.30;99.90
34766;DHT22;20984;43.508;1.504;2022-08-20T10:47:36;26.40;99.90
34766;DHT22;20984;43.508;1.504;2022-08-20T10:50:06;26.50;99.90
34766;DHT22;20984;43.508;1.504;2022-08-20T10:52:33;26.70;99.90
34766;DHT22;20984;43.508;1.504;2022-08-20T10:54:59;27.00;99.90
34766;DHT22;20984;43.508;1.504;2022-08-20T10:57:27;27.10;99.90
34766;DHT22;20984;43.508;1.504;2022-08-20T10:59:55;27.20;99.90
34766;DHT22;20984;43.508;1.504;2022-08-20T11:02:22;27.10;99.90
34766;DHT22;20984;43.508;1.504;2022-08-20T11:04:48;26.70;99.90
34766;DHT22;20984;43.508;1.504;2022-08-20T11:07:28;26.40;99.90
34766;DHT22;20984;43.508;1.504;2022-08-20T11:09:54;26.20;99.90
34766;DHT22;20984;43.508;1.504;2022-08-20T11:12:21;26.20;99.90
34766;DHT22;20984;43.508;1.504;2022-08-20T11:14:48;26.50;99.90
34766;DHT22;20984;43.508;1.504;2022-08-20T11:17:23;26.80;99.90
34766;DHT22;20984;43.508;1.504;2022-08-20T11:19:50;27.00;99.90
34766;DHT22;20984;43.508;1.504;2022-08-20T11:22:16;27.00;99.90
34766;DHT22;20984;43.508;1.504;2022-08-20T11:24:42;27.10;99.90
34766;DHT22;20984;43.508;1.504;2022-08-20T11:27:09;27.20;99.90
34766;DHT22;20984;43.508;1.504;2022-08-20T11:29:36;27.30;99.90
34766;DHT22;20984;43.508;1.504;2022-08-20T11:32:04;27.30;99.90
34766;DHT22;20984;43.508;1.504;2022-08-20T11:34:30;27.30;99.90
34766;DHT22;20984;43.508;1.504;2022-08-20T11:36:56;27.40;99.90
34766;DHT22;20984;43.508;1.504;2022-08-20T11:39:24;27.50;99.90
34766;DHT22;20984;43.508;1.504;2022-08-20T11:41:50;27.40;99.90
34766;DHT22;20984;43.508;1.504;2022-08-20T11:44:16;27.20;99.90
34766;DHT22;20984;43.508;1.504;2022-08-20T11:46:41;27.20;99.90
34766;DHT22;20984;43.508;1.504;2022-08-20T11:49:07;27.20;99.90
34766;DHT22;20984;43.508;1.504;2022-08-20T11:51:33;27.30;99.90
34766;DHT22;20984;43.508;1.504;2022-08-20T11:53:59;27.20;99.90
34766;DHT22;20984;43.508;1.504;2022-08-20T11:56:25;27.40;99.90
34766;DHT22;20984;43.508;1.504;2022-08-20T11:58:50;27.40;99.90
34766;DHT22;20984;43.508;1.504;2022-08-20T12:01:16;27.40;99.90
34766;DHT22;20984;43.508;1.504;2022-08-20T12:03:42;27.50;99.90
34766;DHT22;20984;43.508;1.504;2022-08-20T12:06:08;27.50;99.90
34766;DHT22;20984;43.508;1.504;2022-08-20T12:08:33;27.60;99.90
34766;DHT22;20984;43.508;1.504;2022-08-20T12:11:01;27.80;99.90
34766;DHT22;20984;43.508;1.504;2022-08-20T12:13:29;28.00;99.90
34766;DHT22;20984;43.508;1.504;2022-08-20T12:15:56;28.00;99.90
34766;DHT22;20984;43.508;1.504;2022-08-20T12:18:22;28.20;99.90
34766;DHT22;20984;43.508;1.504;2022-08-20T12:20:48;28.20;99.90
34766;DHT22;20984;43.508;1.504;2022-08-20T12:23:14;28.10;99.90
34766;DHT22;20984;43.508;1.504;2022-08-20T12:25:40;27.80;99.90
34766;DHT22;20984;43.508;1.504;2022-08-20T12:28:06;27.90;99.90
34766;DHT22;20984;43.508;1.504;2022-08-20T12:30:32;28.00;99.90
34766;DHT22;20984;43.508;1.504;2022-08-20T12:32:58;28.10;99.90
34766;DHT22;20984;43.508;1.504;2022-08-20T12:35:25;28.10;99.90
34766;DHT22;20984;43.508;1.504;2022-08-20T12:37:51;28.10;99.60
34766;DHT22;20984;43.508;1.504;2022-08-20T12:40:24;28.10;99.90
34766;DHT22;20984;43.508;1.504;2022-08-20T12:42:50;28.30;99.70
34766;DHT22;20984;43.508;1.504;2022-08-20T12:45:17;28.40;98.20
34766;DHT22;20984;43.508;1.504;2022-08-20T12:47:45;28.50;97.70
34766;DHT22;20984;43.508;1.504;2022-08-20T12:50:23;28.70;98.70
34766;DHT22;20984;43.508;1.504;2022-08-20T12:52:49;28.70;96.30
34766;DHT22;20984;43.508;1.504;2022-08-20T12:55:17;28.60;95.40
34766;DHT22;20984;43.508;1.504;2022-08-20T12:57:46;28.50;96.10
34766;DHT22;20984;43.508;1.504;2022-08-20T13:00:22;28.20;96.80
34766;DHT22;20984;43.508;1.504;2022-08-20T13:02:50;28.30;98.30
34766;DHT22;20984;43.508;1.504;2022-08-20T13:05:16;28.30;97.10
34766;DHT22;20984;43.508;1.504;2022-08-20T13:07:43;28.40;96.20
34766;DHT22;20984;43.508;1.504;2022-08-20T13:10:12;28.40;96.90
34766;DHT22;20984;43.508;1.504;2022-08-20T13:12:38;28.70;96.00
34766;DHT22;20984;43.508;1.504;2022-08-20T13:15:05;28.70;94.50
34766;DHT22;20984;43.508;1.504;2022-08-20T13:17:31;28.80;95.60
34766;DHT22;20984;43.508;1.504;2022-08-20T13:19:57;29.00;94.50
34766;DHT22;20984;43.508;1.504;2022-08-20T13:22:23;28.90;94.40
34766;DHT22;20984;43.508;1.504;2022-08-20T13:24:48;29.10;95.00
34766;DHT22;20984;43.508;1.504;2022-08-20T13:27:17;29.10;93.80
34766;DHT22;20984;43.508;1.504;2022-08-20T13:29:52;29.00;93.70
34766;DHT22;20984;43.508;1.504;2022-08-20T13:32:18;29.10;94.00
34766;DHT22;20984;43.508;1.504;2022-08-20T13:34:44;29.10;92.60
34766;DHT22;20984;43.508;1.504;2022-08-20T13:37:31;29.10;90.90
34766;DHT22;20984;43.508;1.504;2022-08-20T13:39:58;29.00;91.50
34766;DHT22;20984;43.508;1.504;2022-08-20T13:42:25;29.10;92.70
34766;DHT22;20984;43.508;1.504;2022-08-20T13:44:52;29.40;92.00
34766;DHT22;20984;43.508;1.504;2022-08-20T13:47:27;29.40;91.50
34766;DHT22;20984;43.508;1.504;2022-08-20T13:49:55;29.60;91.30
34766;DHT22;20984;43.508;1.504;2022-08-20T13:52:22;29.70;91.10
34766;DHT22;20984;43.508;1.504;2022-08-20T13:54:48;30.00;90.10
34766;DHT22;20984;43.508;1.504;2022-08-20T13:57:16;30.20;89.00
34766;DHT22;20984;43.508;1.504;2022-08-20T13:59:44;30.40;83.70
34766;DHT22;20984;43.508;1.504;2022-08-20T14:02:11;30.60;85.80
34766;DHT22;20984;43.508;1.504;2022-08-20T14:04:37;30.60;85.20
34766;DHT22;20984;43.508;1.504;2022-08-20T14:07:17;30.60;85.50
34766;DHT22;20984;43.508;1.504;2022-08-20T14:09:46;30.80;88.30
34766;DHT22;20984;43.508;1.504;2022-08-20T14:12:13;30.90;85.80
34766;DHT22;20984;43.508;1.504;2022-08-20T14:14:39;30.60;84.70
34766;DHT22;20984;43.508;1.504;2022-08-20T14:17:33;30.40;86.10
34766;DHT22;20984;43.508;1.504;2022-08-20T14:20:06;30.20;87.40
34766;DHT22;20984;43.508;1.504;2022-08-20T14:22:33;30.50;85.40
34766;DHT22;20984;43.508;1.504;2022-08-20T14:24:59;30.80;82.70
34766;DHT22;20984;43.508;1.504;2022-08-20T14:27:29;30.80;81.50
34766;DHT22;20984;43.508;1.504;2022-08-20T14:29:56;30.80;83.20
34766;DHT22;20984;43.508;1.504;2022-08-20T14:32:22;30.90;84.80
34766;DHT22;20984;43.508;1.504;2022-08-20T14:34:48;31.20;82.90
34766;DHT22;20984;43.508;1.504;2022-08-20T14:39:43;30.90;82.50
34766;DHT22;20984;43.508;1.504;2022-08-20T14:42:09;30.90;81.20
34766;DHT22;20984;43.508;1.504;2022-08-20T14:44:35;31.00;82.10
34766;DHT22;20984;43.508;1.504;2022-08-20T14:47:47;31.10;80.30
34766;DHT22;20984;43.508;1.504;2022-08-20T14:50:14;31.00;80.00
34766;DHT22;20984;43.508;1.504;2022-08-20T14:52:40;31.40;79.70
34766;DHT22;20984;43.508;1.504;2022-08-20T14:55:10;31.40;79.70
34766;DHT22;20984;43.508;1.504;2022-08-20T14:57:37;31.40;80.60
34766;DHT22;20984;43.508;1.504;2022-08-20T15:00:06;31.40;78.60
34766;DHT22;20984;43.508;1.504;2022-08-20T15:02:34;32.00;77.50
34766;DHT22;20984;43.508;1.504;2022-08-20T15:05:01;33.00;75.70
34766;DHT22;20984;43.508;1.504;2022-08-20T15:07:30;33.90;71.80
34766;DHT22;20984;43.508;1.504;2022-08-20T15:09:57;34.90;73.10
34766;DHT22;20984;43.508;1.504;2022-08-20T15:12:25;36.90;70.00
34766;DHT22;20984;43.508;1.504;2022-08-20T15:14:51;38.00;63.70
34766;DHT22;20984;43.508;1.504;2022-08-20T15:17:19;39.10;62.10
34766;DHT22;20984;43.508;1.504;2022-08-20T15:19:45;39.30;58.10
34766;DHT22;20984;43.508;1.504;2022-08-20T15:22:11;39.30;58.80
34766;DHT22;20984;43.508;1.504;2022-08-20T15:24:36;39.60;57.50
34766;DHT22;20984;43.508;1.504;2022-08-20T15:27:21;39.40;54.90
34766;DHT22;20984;43.508;1.504;2022-08-20T15:29:49;38.70;54.80
34766;DHT22;20984;43.508;1.504;2022-08-20T15:32:15;37.90;57.30
34766;DHT22;20984;43.508;1.504;2022-08-20T15:34:41;38.40;56.80
34766;DHT22;20984;43.508;1.504;2022-08-20T15:37:13;38.70;55.70
34766;DHT22;20984;43.508;1.504;2022-08-20T15:39:40;38.50;55.50
34766;DHT22;20984;43.508;1.504;2022-08-20T15:42:07;38.10;56.00